Time;durP1;ratioP1;P1;durP2;ratioP2;P2;SDS_P1;SDS_P2;PMS_P1;PMS_P2;Temp;Humidity;BMP_temperature;BMP_pressure;BME280_temperature;BME280_humidity;BME280_pressure;Samples;Min_cycle;Max_cycle;Signal;HPM_P1;HPM_P2
2023/09/06 00:02:54;;;;;;;15.10;7.68;;;;;;;;;;10288344;28;20068;-92
2023/09/06 00:07:55;;;;;;;12.35;7.78;;;;;;;;;;10276005;28;20062;-91
2023/09/06 00:12:56;;;;;;;12.95;7.78;;;;;;;;;;10286809;28;20545;-91
2023/09/06 00:17:57;;;;;;;15.35;7.53;;;;;;;;;;10277252;28;20528;-91
2023/09/06 00:23:00;;;;;;;12.32;8.05;;;;;;;;;;10278239;28;20054;-91
2023/09/06 00:28:06;;;;;;;13.13;7.07;;;;;;;;;;10261241;28;20038;-91
2023/09/06 00:33:07;;;;;;;11.48;7.55;;;;;;;;;;10275214;28;20042;-91
2023/09/06 00:38:09;;;;;;;11.07;7.40;;;;;;;;;;10260327;28;20090;-91
2023/09/06 00:43:10;;;;;;;13.02;7.95;;;;;;;;;;10275530;28;20042;-90
2023/09/06 00:48:12;;;;;;;13.27;7.35;;;;;;;;;;10274064;28;20726;-90
2023/09/06 00:53:14;;;;;;;14.10;8.45;;;;;;;;;;10267548;28;20090;-92
2023/09/06 00:58:16;;;;;;;13.73;9.52;;;;;;;;;;10266902;28;20027;-91
2023/09/06 01:03:17;;;;;;;21.25;11.45;;;;;;;;;;10272784;28;20043;-91
2023/09/06 01:08:24;;;;;;;17.08;10.30;;;;;;;;;;10285949;28;20360;-92
2023/09/06 01:13:26;;;;;;;13.70;8.80;;;;;;;;;;10287717;28;20157;-92
2023/09/06 01:18:27;;;;;;;12.95;7.72;;;;;;;;;;10275953;28;20039;-91
2023/09/06 01:23:37;;;;;;;11.65;7.97;;;;;;;;;;10273424;28;20109;-92
2023/09/06 01:28:38;;;;;;;14.40;9.25;;;;;;;;;;10286856;28;20046;-92
2023/09/06 01:33:40;;;;;;;14.48;9.27;;;;;;;;;;10275456;28;20045;-91
2023/09/06 01:38:41;;;;;;;13.98;8.85;;;;;;;;;;10273447;28;20165;-91
2023/09/06 01:43:42;;;;;;;14.30;9.93;;;;;;;;;;10276804;28;20411;-91
2023/09/06 01:48:44;;;;;;;15.68;9.40;;;;;;;;;;10283514;28;20039;-91
2023/09/06 01:53:45;;;;;;;15.20;8.70;;;;;;;;;;10286103;28;20034;-90
2023/09/06 01:58:46;;;;;;;19.27;10.88;;;;;;;;;;10279734;28;20031;-91
2023/09/06 02:03:47;;;;;;;17.50;11.20;;;;;;;;;;10268356;28;20454;-92
2023/09/06 02:08:49;;;;;;;17.15;10.45;;;;;;;;;;10271841;28;20467;-91
2023/09/06 02:13:50;;;;;;;17.38;10.45;;;;;;;;;;10284653;28;20080;-92
2023/09/06 02:18:51;;;;;;;16.98;10.30;;;;;;;;;;10273890;28;20094;-91
2023/09/06 02:23:52;;;;;;;15.48;9.63;;;;;;;;;;10272924;28;20046;-92
2023/09/06 02:28:53;;;;;;;15.35;9.27;;;;;;;;;;10265871;28;20027;-91
2023/09/06 02:33:55;;;;;;;14.52;9.68;;;;;;;;;;10266668;28;20034;-91
2023/09/06 02:38:57;;;;;;;15.77;9.23;;;;;;;;;;10282802;28;20088;-91
2023/09/06 02:43:58;;;;;;;18.85;11.60;;;;;;;;;;10270138;28;20525;-92
2023/09/06 02:49:01;;;;;;;15.40;10.35;;;;;;;;;;10270016;28;20491;-93
2023/09/06 02:54:02;;;;;;;17.00;11.13;;;;;;;;;;10270983;28;20058;-91
2023/09/06 02:59:07;;;;;;;21.77;11.73;;;;;;;;;;10284456;28;20027;-93
2023/09/06 03:04:08;;;;;;;18.08;11.30;;;;;;;;;;10277812;28;20101;-92
2023/09/06 03:09:12;;;;;;;20.38;11.18;;;;;;;;;;10263155;28;20031;-91
2023/09/06 03:14:17;;;;;;;16.77;10.85;;;;;;;;;;10256419;28;20034;-93
2023/09/06 03:25:17;;;;;;;19.75;9.95;;;;;;;;;;10096480;29;20053;-92
2023/09/06 03:30:19;;;;;;;16.50;10.13;;;;;;;;;;10240634;28;20045;-93
2023/09/06 03:35:27;;;;;;;19.05;10.80;;;;;;;;;;10265031;28;20056;-92
2023/09/06 03:40:35;;;;;;;17.58;10.63;;;;;;;;;;10256694;28;20632;-94
2023/09/06 03:45:36;;;;;;;18.58;10.68;;;;;;;;;;10267703;28;20788;-91
2023/09/06 03:50:37;;;;;;;20.20;11.18;;;;;;;;;;10275670;28;20042;-90
2023/09/06 03:55:38;;;;;;;23.67;13.35;;;;;;;;;;10278979;28;20035;-92
2023/09/06 04:00:51;;;;;;;23.05;13.93;;;;;;;;;;10253555;28;20054;-95
2023/09/06 04:05:52;;;;;;;21.02;13.23;;;;;;;;;;10257742;28;20039;-91
2023/09/06 04:10:53;;;;;;;23.60;13.68;;;;;;;;;;10265022;28;20026;-91
2023/09/06 04:15:55;;;;;;;21.40;12.18;;;;;;;;;;10277004;28;20104;-91
2023/09/06 04:20:59;;;;;;;20.67;12.77;;;;;;;;;;10255809;28;20573;-86
2023/09/06 04:26:00;;;;;;;23.00;13.15;;;;;;;;;;10269118;28;20448;-92
2023/09/06 04:31:04;;;;;;;19.55;12.52;;;;;;;;;;10266274;28;20031;-92
2023/09/06 04:36:34;;;;;;;;;;;;;;;;;;;;;
2023/09/06 04:41:41;;;;;;;25.52;14.13;;;;;;;;;;10266315;28;20094;-95
2023/09/06 04:46:43;;;;;;;22.35;13.73;;;;;;;;;;10267801;28;20641;-93
2023/09/06 04:52:04;;;;;;;27.20;14.40;;;;;;;;;;10253485;28;20035;-93
2023/09/06 04:57:05;;;;;;;18.92;11.20;;;;;;;;;;10284784;28;20085;-91
2023/09/06 05:02:07;;;;;;;20.85;12.23;;;;;;;;;;10273607;28;20062;-93
2023/09/06 05:07:08;;;;;;;17.10;11.25;;;;;;;;;;10285735;28;20073;-93
2023/09/06 05:12:09;;;;;;;21.02;12.35;;;;;;;;;;10259424;28;20035;-93
2023/09/06 05:17:11;;;;;;;20.60;11.45;;;;;;;;;;10262153;28;20034;-93
2023/09/06 05:22:12;;;;;;;21.13;12.82;;;;;;;;;;10287281;28;20037;-93
2023/09/06 05:27:29;;;;;;;21.05;11.85;;;;;;;;;;10283547;28;20491;-92
2023/09/06 05:32:49;;;;;;;23.58;13.32;;;;;;;;;;10269505;28;20047;-90
2023/09/06 05:37:54;;;;;;;18.10;11.98;;;;;;;;;;10285896;28;20070;-92
2023/09/06 05:42:55;;;;;;;20.85;13.40;;;;;;;;;;10271595;28;20038;-92
2023/09/06 05:47:56;;;;;;;20.98;13.65;;;;;;;;;;10273569;28;20082;-92
2023/09/06 05:52:58;;;;;;;20.20;12.90;;;;;;;;;;10282645;28;20035;-94
2023/09/06 05:57:59;;;;;;;22.20;13.32;;;;;;;;;;10261903;28;20034;-94
2023/09/06 06:03:01;;;;;;;20.88;13.80;;;;;;;;;;10258949;28;20073;-92
2023/09/06 06:08:03;;;;;;;25.48;16.63;;;;;;;;;;10272719;28;20045;-92
2023/09/06 06:13:04;;;;;;;24.05;16.38;;;;;;;;;;10254466;28;20023;-93
2023/09/06 06:18:05;;;;;;;23.50;15.32;;;;;;;;;;10255185;28;20122;-94
2023/09/06 06:23:19;;;;;;;25.52;16.73;;;;;;;;;;10279157;28;20039;-93
2023/09/06 06:28:22;;;;;;;;;;;;;;;;;;10275419;28;20042;-90
2023/09/06 06:33:24;;;;;;;22.40;14.40;;;;;;;;;;10281957;28;19920;-94
2023/09/06 06:38:25;;;;;;;25.02;14.75;;;;;;;;;;10252069;28;20376;-93
2023/09/06 06:43:27;;;;;;;18.63;13.15;;;;;;;;;;10265434;28;20067;-92
2023/09/06 06:48:31;;;;;;;19.63;12.70;;;;;;;;;;10269268;28;20030;-91
2023/09/06 06:53:33;;;;;;;18.90;12.45;;;;;;;;;;10256924;28;20038;-91
2023/09/06 06:58:34;;;;;;;19.25;12.15;;;;;;;;;;10267305;28;20557;-89
2023/09/06 07:04:45;;;;;;;20.85;11.88;;;;;;;;;;10602430;27;20387;-94
2023/09/06 07:09:46;;;;;;;16.35;11.65;;;;;;;;;;10583886;27;20058;-91
2023/09/06 07:14:55;;;;;;;18.33;9.80;;;;;;;;;;10601838;28;20654;-92
2023/09/06 07:19:56;;;;;;;14.52;8.25;;;;;;;;;;10564535;28;20038;-91
2023/09/06 07:24:57;;;;;;;10.40;7.35;;;;;;;;;;10587187;28;20036;-92
2023/09/06 07:29:58;;;;;;;11.15;7.50;;;;;;;;;;10602772;28;20035;-91
2023/09/06 07:35:00;;;;;;;11.18;7.10;;;;;;;;;;10588927;28;20473;-94
2023/09/06 07:40:01;;;;;;;12.68;6.45;;;;;;;;;;10602222;28;20027;-90
2023/09/06 07:45:02;;;;;;;11.93;7.00;;;;;;;;;;10588273;28;20470;-91
2023/09/06 07:50:05;;;;;;;12.07;6.93;;;;;;;;;;10601464;28;20068;-90
2023/09/06 08:00:48;;;;;;;9.93;6.57;;;;;;;;;;10588010;28;20054;-92
2023/09/06 08:33:16;;;;;;;7.80;4.72;;;;;;;;;;12527012;22;20553;-92
2023/09/06 08:49:49;;;;;;;8.65;4.60;;;;;;;;;;10446295;28;20037;-91
2023/09/06 08:54:50;;;;;;;8.55;4.80;;;;;;;;;;10427668;28;20029;-91
2023/09/06 09:11:18;;;;;;;7.95;4.75;;;;;;;;;;11053559;23;20530;-91
2023/09/06 09:22:07;;;;;;;5.75;4.55;;;;;;;;;;10750008;23;20515;-89
2023/09/06 09:27:08;;;;;;;6.65;4.25;;;;;;;;;;10426966;28;20048;-89
2023/09/06 09:32:10;;;;;;;7.13;4.22;;;;;;;;;;10426873;28;20032;-90
2023/09/06 09:37:11;;;;;;;4.95;4.28;;;;;;;;;;10427158;28;20035;-89
2023/09/06 09:42:12;;;;;;;6.07;3.83;;;;;;;;;;10426597;28;20047;-90
2023/09/06 09:47:14;;;;;;;5.10;3.50;;;;;;;;;;10426249;28;20136;-90
2023/09/06 09:52:17;;;;;;;5.28;3.97;;;;;;;;;;10426892;28;20044;-91
2023/09/06 09:57:21;;;;;;;7.72;5.10;;;;;;;;;;10425863;28;20136;-91
2023/09/06 10:02:22;;;;;;;5.97;4.63;;;;;;;;;;10425619;28;20083;-90
2023/09/06 10:07:24;;;;;;;6.85;4.32;;;;;;;;;;10426393;28;20044;-90
2023/09/06 10:12:27;;;;;;;6.30;4.25;;;;;;;;;;10425677;28;20032;-90
2023/09/06 10:17:29;;;;;;;8.55;5.40;;;;;;;;;;10426047;28;20021;-90
2023/09/06 10:22:31;;;;;;;10.02;4.88;;;;;;;;;;10424878;28;20068;-91
2023/09/06 10:27:32;;;;;;;8.13;4.68;;;;;;;;;;10426260;28;20068;-90
2023/09/06 10:32:43;;;;;;;9.52;4.68;;;;;;;;;;10425373;28;20041;-91
2023/09/06 10:38:04;;;;;;;8.93;4.82;;;;;;;;;;10424755;28;20037;-90
2023/09/06 10:43:05;;;;;;;6.57;4.50;;;;;;;;;;10419602;28;20122;-88
2023/09/06 10:48:10;;;;;;;7.82;4.43;;;;;;;;;;10424985;28;20024;-93
2023/09/06 10:53:18;;;;;;;7.88;5.05;;;;;;;;;;10408743;28;20041;-90
2023/09/06 10:58:23;;;;;;;7.82;4.70;;;;;;;;;;10424798;28;20733;-90
2023/09/06 11:03:31;;;;;;;7.00;4.68;;;;;;;;;;10424434;28;20063;-91
2023/09/06 11:08:33;;;;;;;10.13;5.40;;;;;;;;;;10424416;28;20580;-89
2023/09/06 11:13:35;;;;;;;10.02;5.07;;;;;;;;;;10425539;28;20037;-90
2023/09/06 11:18:50;;;;;;;8.23;5.55;;;;;;;;;;10424151;28;20071;-91
2023/09/06 11:23:52;;;;;;;6.05;4.28;;;;;;;;;;10423836;28;20041;-91
2023/09/06 11:29:01;;;;;;;6.60;4.80;;;;;;;;;;10417967;28;20037;-90
2023/09/06 11:34:04;;;;;;;7.65;4.35;;;;;;;;;;10418982;28;20551;-88
2023/09/06 11:39:15;;;;;;;8.40;4.05;;;;;;;;;;10423565;28;20037;-90
2023/09/06 11:44:19;;;;;;;7.65;4.22;;;;;;;;;;10423614;28;20040;-89
2023/09/06 11:49:57;;;;;;;6.28;4.85;;;;;;;;;;10401668;28;20685;-87
2023/09/06 12:54:49;;;;;;;9.45;5.38;;;;;;;;;;11836038;23;20137;-88
2023/09/06 13:05:32;;;;;;;11.02;5.97;;;;;;;;;;10165209;29;20055;-88
2023/09/06 13:10:33;;;;;;;8.57;5.45;;;;;;;;;;10136070;29;20077;-90
2023/09/06 13:15:34;;;;;;;8.95;5.57;;;;;;;;;;10136134;29;20596;-89
2023/09/06 13:20:35;;;;;;;10.07;6.15;;;;;;;;;;10142481;29;20036;-87
2023/09/06 13:25:36;;;;;;;9.65;6.05;;;;;;;;;;10155222;29;20412;-89
2023/09/06 13:30:37;;;;;;;12.63;8.02;;;;;;;;;;10145242;29;20028;-87
2023/09/06 13:35:39;;;;;;;9.30;6.28;;;;;;;;;;10145660;29;20122;-89
2023/09/06 13:40:40;;;;;;;8.10;6.03;;;;;;;;;;10145279;29;20485;-88
2023/09/06 13:45:41;;;;;;;8.90;6.03;;;;;;;;;;10144524;29;20495;-88
2023/09/06 13:50:42;;;;;;;9.77;5.97;;;;;;;;;;10150504;29;20600;-88
2023/09/06 13:55:43;;;;;;;7.85;5.43;;;;;;;;;;10143676;29;20155;-89
2023/09/06 14:00:44;;;;;;;8.98;5.63;;;;;;;;;;10142571;29;20575;-88
2023/09/06 14:05:49;;;;;;;8.45;5.03;;;;;;;;;;10143583;29;20056;-92
2023/09/06 14:10:51;;;;;;;9.75;5.35;;;;;;;;;;10142219;29;20028;-90
2023/09/06 14:15:54;;;;;;;12.27;5.40;;;;;;;;;;10143291;29;20593;-88
2023/09/06 14:20:58;;;;;;;8.80;5.68;;;;;;;;;;10142430;29;20122;-88
2023/09/06 14:25:59;;;;;;;9.60;5.25;;;;;;;;;;10142405;29;20043;-89
2023/09/06 14:31:00;;;;;;;7.38;5.30;;;;;;;;;;10161310;29;20062;-89
2023/09/06 14:36:02;;;;;;;7.85;4.78;;;;;;;;;;10143324;29;20046;-91
2023/09/06 14:41:42;;;;;;;8.52;4.90;;;;;;;;;;10145436;29;20454;-91
2023/09/06 14:46:57;;;;;;;7.53;5.45;;;;;;;;;;10145191;29;20091;-89
2023/09/06 14:51:58;;;;;;;9.23;5.45;;;;;;;;;;10147927;29;20095;-90
2023/09/06 14:56:59;;;;;;;8.57;5.22;;;;;;;;;;10138381;29;20068;-89
2023/09/06 15:02:00;;;;;;;10.52;5.60;;;;;;;;;;10157440;29;20400;-90
2023/09/06 15:07:05;;;;;;;7.22;4.90;;;;;;;;;;10159204;29;20036;-89
2023/09/06 15:12:09;;;;;;;7.97;5.10;;;;;;;;;;10158580;29;20036;-88
2023/09/06 15:22:51;;;;;;;8.60;4.68;;;;;;;;;;10159000;29;20051;-89
2023/09/06 15:39:13;;;;;;;8.30;5.38;;;;;;;;;;10164263;29;20036;-90
2023/09/06 15:44:15;;;;;;;9.90;5.55;;;;;;;;;;10164670;29;20040;-90
2023/09/06 15:49:17;;;;;;;11.27;5.13;;;;;;;;;;10163372;29;20496;-90
2023/09/06 15:54:36;;;;;;;9.63;5.03;;;;;;;;;;10158685;29;20575;-88
2023/09/06 15:59:37;;;;;;;8.23;5.03;;;;;;;;;;10108813;29;20095;-88
2023/09/06 16:04:38;;;;;;;7.63;4.72;;;;;;;;;;10111966;29;20051;-88
2023/09/06 16:15:37;;;;;;;5.95;3.58;;;;;;;;;;10041978;29;20061;-89
2023/09/06 16:20:49;;;;;;;5.20;3.70;;;;;;;;;;10023074;29;20057;-89
2023/09/06 16:26:12;;;;;;;5.78;3.30;;;;;;;;;;10082859;29;20880;-89
2023/09/06 16:31:13;;;;;;;4.88;3.80;;;;;;;;;;10108435;29;20507;-90
2023/09/06 16:36:24;;;;;;;;;;;;;;;;;;;;;
2023/09/06 16:41:36;;;;;;;7.35;3.75;;;;;;;;;;10118701;29;20060;-90
2023/09/06 16:46:39;;;;;;;6.07;3.72;;;;;;;;;;10110098;29;20064;-88
2023/09/06 16:51:43;;;;;;;9.32;4.28;;;;;;;;;;10107796;29;20037;-90
2023/09/06 16:56:45;;;;;;;5.45;3.97;;;;;;;;;;10123347;29;20159;-89
2023/09/06 17:01:54;;;;;;;6.00;3.90;;;;;;;;;;10146791;29;20031;-88
2023/09/06 17:06:55;;;;;;;7.00;3.67;;;;;;;;;;10147179;29;20074;-88
2023/09/06 17:11:57;;;;;;;5.30;4.00;;;;;;;;;;10164649;29;20047;-90
2023/09/06 17:16:58;;;;;;;9.27;4.65;;;;;;;;;;10147747;29;20048;-89
2023/09/06 17:22:00;;;;;;;6.78;4.35;;;;;;;;;;10155220;29;20036;-90
2023/09/06 17:27:04;;;;;;;7.35;4.80;;;;;;;;;;10147037;29;20067;-89
2023/09/06 17:32:05;;;;;;;6.65;4.10;;;;;;;;;;10146347;29;20102;-89
2023/09/06 17:37:11;;;;;;;10.50;5.15;;;;;;;;;;10145483;29;20039;-89
2023/09/06 17:42:12;;;;;;;11.57;6.28;;;;;;;;;;10139521;29;20037;-88
2023/09/06 17:47:13;;;;;;;7.35;5.25;;;;;;;;;;10160022;29;20508;-89
2023/09/06 17:52:16;;;;;;;8.55;5.88;;;;;;;;;;10140163;29;20032;-88
2023/09/06 17:57:17;;;;;;;11.23;6.50;;;;;;;;;;10143006;29;20059;-89
2023/09/06 18:02:19;;;;;;;10.48;6.40;;;;;;;;;;10144785;29;20051;-88
2023/09/06 18:07:23;;;;;;;10.10;5.82;;;;;;;;;;10160218;29;20392;-87
2023/09/06 18:18:08;;;;;;;8.02;5.85;;;;;;;;;;10162597;29;20036;-89
2023/09/06 18:23:09;;;;;;;7.47;5.35;;;;;;;;;;10130070;29;20687;-87
2023/09/06 18:28:10;;;;;;;10.68;6.40;;;;;;;;;;10141743;29;20980;-87
2023/09/06 18:33:12;;;;;;;9.88;5.57;;;;;;;;;;10142535;29;20040;-89
2023/09/06 18:38:16;;;;;;;12.23;5.38;;;;;;;;;;10142311;29;20040;-89
2023/09/06 18:49:07;;;;;;;11.63;6.70;;;;;;;;;;10132118;29;20071;-90
2023/09/06 18:54:08;;;;;;;11.25;6.85;;;;;;;;;;10141493;29;20028;-89
2023/09/06 18:59:47;;;;;;;13.02;7.80;;;;;;;;;;10150589;29;20631;-91
2023/09/06 19:04:57;;;;;;;10.95;6.45;;;;;;;;;;10151048;29;20048;-90
2023/09/06 19:10:34;;;;;;;10.60;6.18;;;;;;;;;;10151077;29;20760;-90
2023/09/06 19:15:36;;;;;;;10.85;6.47;;;;;;;;;;10148650;29;20468;-90
2023/09/06 19:20:39;;;;;;;10.23;6.32;;;;;;;;;;10155588;29;20492;-90
2023/09/06 19:25:51;;;;;;;12.05;6.20;;;;;;;;;;10154937;29;20155;-90
2023/09/06 19:30:57;;;;;;;11.02;6.68;;;;;;;;;;10159017;29;20040;-91
2023/09/06 19:35:58;;;;;;;12.23;7.00;;;;;;;;;;10137822;29;20043;-90
2023/09/06 19:52:20;;;;;;;10.68;6.43;;;;;;;;;;10143464;29;20032;-90
2023/09/06 19:57:21;;;;;;;13.07;7.30;;;;;;;;;;10146630;29;20445;-90
2023/09/06 20:02:22;;;;;;;12.20;7.07;;;;;;;;;;10142574;29;20434;-89
2023/09/06 20:07:23;;;;;;;12.10;6.57;;;;;;;;;;10120508;29;20078;-89
2023/09/06 20:12:25;;;;;;;15.98;7.38;;;;;;;;;;10148867;29;20040;-90
2023/09/06 20:17:26;;;;;;;14.88;7.18;;;;;;;;;;10146813;29;20560;-91
2023/09/06 20:22:27;;;;;;;11.45;7.20;;;;;;;;;;10157806;29;20079;-90
2023/09/06 20:27:28;;;;;;;12.65;7.63;;;;;;;;;;10148936;29;20031;-91
2023/09/06 20:32:29;;;;;;;10.20;7.13;;;;;;;;;;10148258;29;20063;-90
2023/09/06 20:37:30;;;;;;;12.52;7.45;;;;;;;;;;10147882;29;20032;-90
2023/09/06 20:42:32;;;;;;;14.77;8.13;;;;;;;;;;10141733;29;20588;-92
2023/09/06 20:47:33;;;;;;;14.88;8.65;;;;;;;;;;10146470;29;20498;-91
2023/09/06 20:52:34;;;;;;;12.98;8.15;;;;;;;;;;10149849;29;20556;-89
2023/09/06 20:57:35;;;;;;;14.57;8.27;;;;;;;;;;10147655;29;20063;-89
2023/09/06 21:02:36;;;;;;;15.57;9.35;;;;;;;;;;10147352;29;20051;-90
2023/09/06 21:07:37;;;;;;;17.77;9.70;;;;;;;;;;10145661;29;20508;-90
2023/09/06 21:12:38;;;;;;;13.10;8.35;;;;;;;;;;10138300;29;20032;-90
2023/09/06 21:17:40;;;;;;;16.35;8.90;;;;;;;;;;10135464;29;20032;-92
2023/09/06 21:22:41;;;;;;;18.00;10.02;;;;;;;;;;10146104;29;20043;-88
2023/09/06 21:27:42;;;;;;;14.23;8.85;;;;;;;;;;10144087;29;20385;-91
2023/09/06 21:32:43;;;;;;;17.55;10.00;;;;;;;;;;10146103;29;20036;-90
2023/09/06 21:37:44;;;;;;;19.70;9.13;;;;;;;;;;10145833;29;20051;-89
2023/09/06 21:42:45;;;;;;;17.67;9.23;;;;;;;;;;10146529;29;20127;-91
2023/09/06 21:47:46;;;;;;;13.25;8.55;;;;;;;;;;10146128;29;20554;-90
2023/09/06 21:52:47;;;;;;;15.90;8.73;;;;;;;;;;10133853;29;20036;-90
2023/09/06 21:57:48;;;;;;;15.48;8.40;;;;;;;;;;10145234;29;20139;-91
2023/09/06 22:02:49;;;;;;;15.35;8.02;;;;;;;;;;10174842;29;20047;-91
2023/09/06 22:07:51;;;;;;;13.90;8.27;;;;;;;;;;10160879;29;20598;-89
2023/09/06 22:12:52;;;;;;;13.50;8.52;;;;;;;;;;10160743;29;20083;-90
2023/09/06 22:17:53;;;;;;;17.10;10.07;;;;;;;;;;10161520;29;20050;-90
2023/09/06 22:22:54;;;;;;;17.00;9.00;;;;;;;;;;10172300;29;20090;-91
2023/09/06 22:27:57;;;;;;;12.20;8.20;;;;;;;;;;10160420;29;20042;-90
2023/09/06 22:32:58;;;;;;;16.30;8.85;;;;;;;;;;10159989;29;20043;-89
2023/09/06 22:37:59;;;;;;;13.25;8.25;;;;;;;;;;10159743;29;20099;-91
2023/09/06 22:43:01;;;;;;;13.18;8.00;;;;;;;;;;10160513;29;20047;-91
2023/09/06 22:48:02;;;;;;;13.73;8.85;;;;;;;;;;10159649;29;20575;-91
2023/09/06 22:53:03;;;;;;;12.35;7.68;;;;;;;;;;10153800;29;20127;-90
2023/09/06 22:58:04;;;;;;;14.55;8.20;;;;;;;;;;10171609;29;20059;-91
2023/09/06 23:03:08;;;;;;;12.43;8.18;;;;;;;;;;10159588;29;20046;-89
2023/09/06 23:08:09;;;;;;;11.10;8.02;;;;;;;;;;10159449;29;20028;-91
2023/09/06 23:13:13;;;;;;;11.68;8.07;;;;;;;;;;10159530;29;20035;-88
2023/09/06 23:18:17;;;;;;;19.13;8.27;;;;;;;;;;10159570;29;20444;-89
2023/09/06 23:23:20;;;;;;;16.15;8.15;;;;;;;;;;10159246;29;20477;-88
2023/09/06 23:28:21;;;;;;;14.38;8.20;;;;;;;;;;10159391;29;20100;-89
2023/09/06 23:33:43;;;;;;;13.98;8.18;;;;;;;;;;10160030;29;20028;-87
2023/09/06 23:38:47;;;;;;;12.20;7.95;;;;;;;;;;10170742;29;20039;-88
2023/09/06 23:43:49;;;;;;;13.52;7.90;;;;;;;;;;10161461;29;20044;-89
2023/09/06 23:48:50;;;;;;;14.73;7.85;;;;;;;;;;10166948;29;20107;-88
2023/09/06 23:53:51;;;;;;;13.85;7.93;;;;;;;;;;10166305;29;20032;-89
2023/09/06 23:58:52;;;;;;;12.20;8.23;;;;;;;;;;10165584;29;20067;-90
